Time;durP1;ratioP1;P1;durP2;ratioP2;P2;SDS_P1;SDS_P2;PMS_P1;PMS_P2;Temp;Humidity;BMP_temperature;BMP_pressure;BME280_temperature;BME280_humidity;BME280_pressure;Samples;Min_cycle;Max_cycle;Signal;HPM_P1;HPM_P2
2022/07/19 00:01:10;;;;;;;10.13;6.07;;;16.60;95.50;;;;;;5010153;28;20508;-84
2022/07/19 00:03:36;;;;;;;8.27;6.20;;;16.60;95.50;;;;;;5001493;28;20697;-84
2022/07/19 00:06:03;;;;;;;9.37;6.00;;;16.50;96.00;;;;;;5005024;27;20237;-83
2022/07/19 00:08:30;;;;;;;8.40;5.93;;;16.50;96.40;;;;;;5017381;28;20237;-83
2022/07/19 00:10:57;;;;;;;9.18;6.07;;;16.40;96.50;;;;;;5002919;27;20355;-83
2022/07/19 00:13:24;;;;;;;8.67;6.57;;;16.40;96.40;;;;;;5002992;27;20289;-83
2022/07/19 00:15:52;;;;;;;7.57;5.87;;;16.30;96.80;;;;;;5012479;28;20300;-83
2022/07/19 00:18:18;;;;;;;8.37;6.20;;;16.30;97.30;;;;;;5001219;28;20232;-84
2022/07/19 00:20:45;;;;;;;8.77;6.10;;;16.20;97.70;;;;;;4999078;27;20229;-83
2022/07/19 00:23:12;;;;;;;8.77;5.90;;;16.20;97.50;;;;;;5002527;27;20229;-83
2022/07/19 00:25:38;;;;;;;11.50;6.43;;;16.20;97.50;;;;;;5002447;27;20345;-83
2022/07/19 00:28:05;;;;;;;10.20;6.67;;;16.10;97.70;;;;;;5000889;27;20271;-83
2022/07/19 00:30:32;;;;;;;10.00;6.40;;;16.10;98.00;;;;;;5009937;27;20268;-83
2022/07/19 00:33:01;;;;;;;7.37;6.33;;;16.00;98.10;;;;;;5045767;28;20731;-83
2022/07/19 00:35:28;;;;;;;8.00;6.70;;;16.00;98.30;;;;;;5030634;28;20691;-83
2022/07/19 00:37:54;;;;;;;7.43;6.23;;;16.00;98.30;;;;;;5003588;27;20237;-83
2022/07/19 00:40:23;;;;;;;9.80;6.63;;;15.90;98.50;;;;;;5010110;27;20218;-83
2022/07/19 00:42:50;;;;;;;9.07;6.90;;;15.90;98.60;;;;;;5007362;27;20509;-83
2022/07/19 00:45:17;;;;;;;10.47;7.43;;;15.90;98.70;;;;;;4989557;28;20714;-83
2022/07/19 00:47:44;;;;;;;7.23;5.93;;;15.80;98.80;;;;;;4994896;27;20704;-83
2022/07/19 00:50:12;;;;;;;7.90;6.40;;;15.80;98.80;;;;;;5005505;27;20232;-83
2022/07/19 00:52:40;;;;;;;9.23;6.90;;;15.70;99.10;;;;;;5032677;28;20668;-82
2022/07/19 00:55:09;;;;;;;9.07;6.40;;;15.70;99.20;;;;;;5010741;27;20234;-82
2022/07/19 00:57:38;;;;;;;9.43;6.60;;;15.60;99.40;;;;;;5095413;27;20302;-82
2022/07/19 01:00:06;;;;;;;8.20;6.63;;;15.60;99.30;;;;;;5020766;22;21099;-91
2022/07/19 01:02:34;;;;;;;9.73;6.73;;;15.60;99.30;;;;;;5083270;28;20940;-91
2022/07/19 01:05:00;;;;;;;9.23;6.67;;;15.60;99.40;;;;;;5084509;28;20225;-91
2022/07/19 01:07:29;;;;;;;6.97;5.90;;;15.50;99.50;;;;;;5065295;28;20412;-90
2022/07/19 01:09:55;;;;;;;9.40;6.50;;;15.50;99.60;;;;;;5078669;28;20492;-91
2022/07/19 01:12:23;;;;;;;8.57;6.37;;;15.50;99.50;;;;;;5077734;28;20246;-92
2022/07/19 01:14:50;;;;;;;8.33;6.27;;;15.40;99.70;;;;;;5079304;28;20246;-91
2022/07/19 01:17:17;;;;;;;7.67;5.97;;;15.40;99.70;;;;;;5082487;28;20227;-90
2022/07/19 01:19:44;;;;;;;8.27;6.60;;;15.40;99.60;;;;;;5062200;28;20234;-92
2022/07/19 01:22:12;;;;;;;7.27;5.93;;;15.30;99.80;;;;;;5076131;28;20234;-91
2022/07/19 01:24:39;;;;;;;11.10;6.10;;;15.30;99.90;;;;;;5055155;28;20302;-91
2022/07/19 01:27:06;;;;;;;8.73;6.57;;;15.20;99.90;;;;;;5057513;28;20223;-91
2022/07/19 01:29:35;;;;;;;10.70;6.63;;;15.20;99.90;;;;;;5074479;28;20237;-91
2022/07/19 01:32:02;;;;;;;9.43;6.70;;;15.20;99.90;;;;;;5061219;28;20405;-91
2022/07/19 01:34:29;;;;;;;8.40;6.33;;;15.10;99.90;;;;;;5057017;28;20321;-91
2022/07/19 01:36:56;;;;;;;9.77;6.37;;;15.10;99.90;;;;;;5063510;28;20253;-91
2022/07/19 01:39:24;;;;;;;9.10;6.30;;;15.10;99.90;;;;;;5064925;28;20282;-91
2022/07/19 01:41:51;;;;;;;8.73;7.10;;;15.00;99.90;;;;;;5067097;28;20279;-91
2022/07/19 01:44:18;;;;;;;10.03;6.93;;;15.00;99.90;;;;;;5063784;28;20203;-91
2022/07/19 01:46:44;;;;;;;7.83;6.50;;;15.00;99.90;;;;;;5067183;28;20286;-91
2022/07/19 01:49:11;;;;;;;7.77;6.37;;;15.00;99.90;;;;;;5066110;28;20228;-92
2022/07/19 01:51:38;;;;;;;8.87;6.70;;;15.00;99.90;;;;;;5071712;28;20215;-91
2022/07/19 01:54:04;;;;;;;7.93;5.83;;;14.90;99.90;;;;;;5062734;28;20249;-91
2022/07/19 01:56:33;;;;;;;7.70;6.20;;;14.90;99.90;;;;;;5067632;28;20312;-91
2022/07/19 01:59:00;;;;;;;6.70;5.90;;;14.80;99.90;;;;;;5081647;28;20257;-91
2022/07/19 02:01:26;;;;;;;8.00;6.20;;;14.80;99.90;;;;;;5086374;28;20214;-90
2022/07/19 02:03:53;;;;;;;12.00;7.00;;;14.80;99.90;;;;;;5084014;28;20215;-90
2022/07/19 02:06:21;;;;;;;8.17;6.63;;;14.70;99.90;;;;;;5071759;28;20234;-91
2022/07/19 02:08:48;;;;;;;8.33;6.80;;;14.70;99.90;;;;;;5071232;28;20226;-92
2022/07/19 02:14:00;;;;;;;7.20;6.03;;;14.60;99.90;;;;;;5083655;28;20295;-91
2022/07/19 02:16:27;;;;;;;9.63;6.57;;;14.60;99.90;;;;;;5066896;28;20265;-91
2022/07/19 02:18:54;;;;;;;7.63;6.13;;;14.60;99.90;;;;;;5083199;28;20238;-90
2022/07/19 02:21:21;;;;;;;8.77;6.10;;;14.50;99.90;;;;;;5081459;28;20242;-91
2022/07/19 02:23:47;;;;;;;9.43;6.23;;;14.50;99.90;;;;;;5066198;28;20310;-91
2022/07/19 02:26:14;;;;;;;8.20;6.53;;;14.50;99.90;;;;;;5076679;28;20219;-92
2022/07/19 02:28:41;;;;;;;8.47;6.03;;;14.50;99.90;;;;;;5083801;28;20290;-91
2022/07/19 02:31:09;;;;;;;7.63;6.47;;;14.40;99.90;;;;;;5082485;28;20246;-91
2022/07/19 02:33:36;;;;;;;8.53;6.50;;;14.40;99.90;;;;;;5063967;28;20230;-92
2022/07/19 02:36:03;;;;;;;9.03;6.30;;;14.40;99.90;;;;;;5080845;28;20264;-90
2022/07/19 02:38:30;;;;;;;8.43;7.03;;;14.30;99.90;;;;;;5063615;28;20230;-91
2022/07/19 02:40:57;;;;;;;9.50;6.80;;;14.30;99.90;;;;;;5063305;28;20238;-91
2022/07/19 02:43:24;;;;;;;8.13;6.33;;;14.30;99.90;;;;;;5081621;28;20250;-91
2022/07/19 02:45:51;;;;;;;7.87;5.93;;;14.30;99.90;;;;;;5062762;28;20385;-91
2022/07/19 02:48:19;;;;;;;7.33;6.10;;;14.30;99.90;;;;;;5064225;28;20225;-91
2022/07/19 02:50:46;;;;;;;8.33;6.83;;;14.20;99.90;;;;;;5079553;28;20239;-90
2022/07/19 02:53:13;;;;;;;9.10;6.60;;;14.20;99.90;;;;;;5057083;28;20218;-92
2022/07/19 02:55:40;;;;;;;8.43;6.23;;;14.20;99.90;;;;;;5069468;28;20767;-91
2022/07/19 02:58:07;;;;;;;7.27;6.47;;;14.10;99.90;;;;;;5077661;28;20249;-91
2022/07/19 03:00:34;;;;;;;8.47;6.70;;;14.10;99.90;;;;;;5057390;28;20292;-91
2022/07/19 03:05:44;;;;;;;8.07;6.23;;;14.00;99.90;;;;;;5052017;28;20240;-91
2022/07/19 03:08:11;;;;;;;8.73;6.47;;;14.10;99.90;;;;;;5072322;28;20236;-91
2022/07/19 03:10:38;;;;;;;7.77;6.50;;;14.10;99.90;;;;;;5056074;28;20226;-92
2022/07/19 03:13:04;;;;;;;9.23;6.60;;;13.90;99.90;;;;;;5046871;28;20298;-92
2022/07/19 03:15:31;;;;;;;12.30;7.00;;;14.10;99.90;;;;;;5055832;28;20893;-92
2022/07/19 03:17:58;;;;;;;9.40;6.40;;;14.00;99.90;;;;;;5057867;28;20292;-91
2022/07/19 03:20:25;;;;;;;7.93;6.13;;;14.00;99.90;;;;;;5061860;28;20226;-91
2022/07/19 03:22:53;;;;;;;7.17;6.23;;;14.00;99.90;;;;;;5063123;28;20266;-91
2022/07/19 03:25:20;;;;;;;8.37;6.77;;;14.00;99.90;;;;;;5064266;28;20245;-91
2022/07/19 03:27:48;;;;;;;9.83;6.93;;;14.00;99.90;;;;;;5064056;28;20253;-91
2022/07/19 03:30:15;;;;;;;7.73;6.57;;;14.00;99.90;;;;;;5081613;28;20531;-92
2022/07/19 03:32:41;;;;;;;10.50;7.00;;;14.00;99.90;;;;;;5065579;28;20251;-91
2022/07/19 03:35:09;;;;;;;8.47;6.87;;;14.00;99.90;;;;;;5072488;28;20293;-91
2022/07/19 03:37:36;;;;;;;9.10;6.40;;;13.90;99.90;;;;;;5079173;28;20254;-91
2022/07/19 03:40:05;;;;;;;8.30;6.33;;;13.90;99.90;;;;;;5054660;28;20234;-91
2022/07/19 03:42:32;;;;;;;8.67;5.93;;;13.90;99.90;;;;;;5061680;28;20269;-91
2022/07/19 03:44:59;;;;;;;7.40;5.60;;;13.90;99.90;;;;;;5077866;28;20518;-91
2022/07/19 03:47:25;;;;;;;7.43;6.37;;;13.90;99.90;;;;;;5067395;28;20294;-91
2022/07/19 03:49:52;;;;;;;8.87;6.60;;;13.90;99.90;;;;;;5050127;28;20254;-91
2022/07/19 03:52:19;;;;;;;7.67;6.43;;;13.90;99.90;;;;;;5073922;28;20239;-90
2022/07/19 03:54:45;;;;;;;8.90;6.60;;;13.90;99.90;;;;;;5080822;28;20237;-91
2022/07/19 03:57:13;;;;;;;8.00;6.40;;;13.90;99.90;;;;;;5062753;28;20314;-91
2022/07/19 03:59:40;;;;;;;8.27;6.37;;;13.90;99.90;;;;;;5061678;28;20214;-90
2022/07/19 04:02:07;;;;;;;7.70;5.47;;;13.90;99.90;;;;;;5053214;28;20230;-91
2022/07/19 04:04:34;;;;;;;8.47;6.40;;;13.90;99.90;;;;;;5060840;28;20282;-92
2022/07/19 04:07:01;;;;;;;7.07;6.17;;;14.00;99.90;;;;;;5061394;28;20468;-91
2022/07/19 04:09:28;;;;;;;8.93;6.43;;;14.00;99.90;;;;;;5066140;28;20211;-92
2022/07/19 04:11:54;;;;;;;11.40;7.10;;;14.00;99.90;;;;;;5071818;28;20230;-91
2022/07/19 04:14:23;;;;;;;8.37;6.70;;;14.10;99.90;;;;;;5064464;28;20283;-91
2022/07/19 04:16:49;;;;;;;8.50;6.90;;;14.10;99.90;;;;;;5068684;28;20202;-91
2022/07/19 04:19:16;;;;;;;8.40;6.30;;;14.10;99.90;;;;;;5080445;28;20229;-91
2022/07/19 04:21:43;;;;;;;8.30;6.07;;;14.20;99.90;;;;;;5076262;28;20628;-91
2022/07/19 04:24:09;;;;;;;8.67;6.23;;;14.20;99.90;;;;;;5074682;28;20317;-91
2022/07/19 04:26:36;;;;;;;8.83;5.97;;;14.30;99.90;;;;;;5064546;28;20230;-91
2022/07/19 04:29:03;;;;;;;7.80;5.90;;;14.40;99.90;;;;;;5062292;28;20236;-91
2022/07/19 04:31:31;;;;;;;7.77;6.37;;;14.40;99.90;;;;;;5064095;28;20251;-91
2022/07/19 04:33:58;;;;;;;7.00;5.67;;;14.50;99.90;;;;;;5068443;28;20282;-89
2022/07/19 04:36:24;;;;;;;8.07;5.87;;;14.50;99.90;;;;;;5084580;28;20289;-91
2022/07/19 04:38:51;;;;;;;8.33;6.00;;;14.60;99.90;;;;;;5069453;28;20282;-91
2022/07/19 04:41:18;;;;;;;7.23;5.87;;;14.70;99.90;;;;;;5082233;28;20280;-92
2022/07/19 04:43:45;;;;;;;7.07;6.07;;;14.70;99.90;;;;;;5068436;28;20213;-92
2022/07/19 04:46:11;;;;;;;7.90;6.47;;;14.90;99.90;;;;;;5083732;28;20226;-91
2022/07/19 04:48:40;;;;;;;8.77;6.40;;;14.90;99.90;;;;;;5082558;28;20242;-91
2022/07/19 04:51:08;;;;;;;7.60;5.77;;;14.90;99.90;;;;;;5075171;28;20230;-92
2022/07/19 04:53:34;;;;;;;7.40;6.13;;;15.00;99.90;;;;;;5079015;28;20223;-91
2022/07/19 04:56:01;;;;;;;8.73;6.27;;;15.10;99.90;;;;;;5085209;28;20249;-93
2022/07/19 04:58:28;;;;;;;9.87;6.60;;;15.20;99.90;;;;;;5077307;28;20234;-92
2022/07/19 05:00:55;;;;;;;11.30;6.63;;;15.20;99.90;;;;;;5071795;28;20220;-92
2022/07/19 05:03:21;;;;;;;11.43;6.27;;;15.30;99.90;;;;;;5062051;28;20246;-91
2022/07/19 05:05:49;;;;;;;8.87;6.23;;;15.40;99.90;;;;;;5075735;28;20241;-91
2022/07/19 05:08:17;;;;;;;14.40;6.73;;;15.50;99.90;;;;;;5057689;28;20286;-92
2022/07/19 05:10:44;;;;;;;10.63;6.03;;;15.50;99.90;;;;;;5090133;28;20218;-91
2022/07/19 05:13:10;;;;;;;8.90;6.40;;;15.60;99.90;;;;;;5065278;28;20211;-91
2022/07/19 05:15:37;;;;;;;12.03;7.00;;;15.70;99.90;;;;;;5062952;28;20287;-92
2022/07/19 05:18:04;;;;;;;9.30;6.20;;;15.80;99.90;;;;;;5082340;28;20199;-90
2022/07/19 05:20:31;;;;;;;11.17;7.03;;;15.90;99.90;;;;;;5060434;28;20217;-91
2022/07/19 05:22:59;;;;;;;8.30;6.63;;;16.00;99.90;;;;;;5070906;28;20299;-91
2022/07/19 05:25:26;;;;;;;8.03;6.60;;;16.10;99.90;;;;;;5087257;28;20294;-92
2022/07/19 05:27:54;;;;;;;8.37;7.00;;;16.10;99.90;;;;;;5066117;28;20230;-92
2022/07/19 05:30:21;;;;;;;8.73;6.03;;;16.30;99.90;;;;;;5070262;28;20207;-92
2022/07/19 05:32:47;;;;;;;9.20;6.23;;;16.40;99.90;;;;;;5066572;28;20313;-91
2022/07/19 05:35:14;;;;;;;9.47;6.60;;;16.50;99.90;;;;;;5078943;28;20564;-93
2022/07/19 05:37:41;;;;;;;8.07;6.80;;;16.60;99.90;;;;;;5063333;28;20223;-92
2022/07/19 05:40:10;;;;;;;12.23;7.00;;;16.60;99.90;;;;;;5062799;28;20306;-92
2022/07/19 05:42:37;;;;;;;10.40;6.77;;;16.80;99.90;;;;;;5087133;28;20345;-93
2022/07/19 05:45:05;;;;;;;11.07;6.57;;;16.90;99.90;;;;;;5058405;28;20228;-92
2022/07/19 05:47:32;;;;;;;9.97;6.73;;;17.00;99.90;;;;;;5058532;28;20317;-94
2022/07/19 05:49:59;;;;;;;8.50;6.17;;;17.10;99.90;;;;;;5062619;28;20310;-93
2022/07/19 05:52:26;;;;;;;8.10;5.88;;;17.20;99.90;;;;;;5068706;28;20235;-93
2022/07/19 05:54:52;;;;;;;8.83;5.63;;;17.40;99.90;;;;;;5086949;28;20239;-92
2022/07/19 05:57:20;;;;;;;6.90;5.70;;;17.50;99.90;;;;;;5067789;28;20211;-93
2022/07/19 05:59:48;;;;;;;7.03;5.57;;;17.50;99.90;;;;;;5067814;28;20231;-93
2022/07/19 06:02:16;;;;;;;10.13;6.27;;;17.70;99.90;;;;;;5063378;28;20216;-93
2022/07/19 06:04:43;;;;;;;9.20;5.90;;;17.80;99.90;;;;;;5062225;28;20238;-93
2022/07/19 06:07:09;;;;;;;7.70;5.70;;;18.00;99.90;;;;;;5055307;28;20303;-92
2022/07/19 06:09:36;;;;;;;7.47;5.78;;;18.10;99.90;;;;;;5062528;28;20327;-92
2022/07/19 06:12:03;;;;;;;8.40;5.82;;;18.20;99.90;;;;;;5064663;28;20230;-93
2022/07/19 06:14:31;;;;;;;10.38;6.10;;;18.30;99.90;;;;;;5064609;28;20310;-94
2022/07/19 06:16:59;;;;;;;6.63;5.22;;;18.40;99.90;;;;;;5066956;28;20506;-94
2022/07/19 06:19:26;;;;;;;6.63;5.10;;;18.50;99.90;;;;;;5081560;28;20583;-93
2022/07/19 06:21:53;;;;;;;6.95;5.38;;;18.70;99.90;;;;;;5082681;28;20219;-93
2022/07/19 06:24:20;;;;;;;6.85;5.82;;;18.80;99.90;;;;;;5065759;28;20250;-93
2022/07/19 06:26:46;;;;;;;9.27;5.65;;;18.90;99.90;;;;;;5082777;28;20596;-94
2022/07/19 06:29:13;;;;;;;7.75;4.85;;;19.00;99.90;;;;;;5082907;28;20223;-93
2022/07/19 06:31:41;;;;;;;6.65;5.53;;;19.20;99.90;;;;;;5065207;28;20219;-93
2022/07/19 06:34:08;;;;;;;6.60;5.38;;;19.30;99.90;;;;;;5063285;28;20286;-93
2022/07/19 06:36:35;;;;;;;6.72;5.05;;;19.40;99.90;;;;;;5065014;28;20281;-93
2022/07/19 06:39:02;;;;;;;8.18;5.55;;;19.50;99.90;;;;;;5066529;28;20247;-93
2022/07/19 06:41:28;;;;;;;7.40;4.68;;;19.70;99.90;;;;;;5053449;28;20278;-93
2022/07/19 06:43:55;;;;;;;6.57;5.35;;;19.80;99.90;;;;;;5056852;28;20235;-93
2022/07/19 06:46:22;;;;;;;8.02;5.07;;;19.90;99.70;;;;;;5062658;28;20310;-94
2022/07/19 06:48:50;;;;;;;7.80;5.20;;;20.00;99.50;;;;;;5066938;28;20302;-93
2022/07/19 06:51:17;;;;;;;6.95;5.20;;;20.20;99.60;;;;;;5063427;28;20288;-93
2022/07/19 06:53:43;;;;;;;6.63;5.25;;;20.30;98.80;;;;;;5077843;28;20223;-93
2022/07/19 06:56:10;;;;;;;8.05;4.80;;;20.50;98.60;;;;;;5057643;28;20219;-94
2022/07/19 06:58:37;;;;;;;8.48;5.13;;;20.60;98.10;;;;;;5077330;28;20234;-93
2022/07/19 07:01:04;;;;;;;6.63;4.68;;;20.70;98.20;;;;;;5060416;28;20233;-94
2022/07/19 07:03:31;;;;;;;7.65;5.35;;;20.90;98.10;;;;;;5058306;28;20241;-93
2022/07/19 07:05:59;;;;;;;7.43;4.80;;;21.10;97.80;;;;;;5060864;28;20219;-93
2022/07/19 07:08:26;;;;;;;7.63;5.15;;;21.40;97.40;;;;;;5075941;28;20264;-94
2022/07/19 07:10:52;;;;;;;9.55;4.97;;;21.70;97.40;;;;;;5060293;28;20235;-93
2022/07/19 07:13:19;;;;;;;7.57;4.85;;;22.00;96.60;;;;;;5074875;28;20231;-93
2022/07/19 07:15:46;;;;;;;10.80;4.75;;;22.40;96.50;;;;;;5075355;28;20262;-94
2022/07/19 07:18:13;;;;;;;10.30;5.47;;;22.90;96.00;;;;;;5057685;28;20250;-92
2022/07/19 07:20:39;;;;;;;8.55;5.25;;;23.40;95.80;;;;;;5056312;28;20246;-94
2022/07/19 07:23:08;;;;;;;11.65;4.93;;;24.10;95.40;;;;;;5057875;28;20294;-94
2022/07/19 07:25:35;;;;;;;5.75;4.68;;;24.80;93.80;;;;;;5059345;28;20219;-94
2022/07/19 07:28:02;;;;;;;6.40;4.90;;;25.70;93.30;;;;;;5071129;28;20241;-94
2022/07/19 07:30:28;;;;;;;9.35;4.85;;;26.40;92.00;;;;;;5056160;28;20231;-93
2022/07/19 07:32:55;;;;;;;7.10;4.63;;;27.20;90.50;;;;;;5077463;28;20223;-94
2022/07/19 07:35:22;;;;;;;6.70;5.30;;;28.00;89.10;;;;;;5062362;28;20294;-94
2022/07/19 07:37:49;;;;;;;5.18;4.53;;;28.70;86.10;;;;;;5079875;28;20219;-93
2022/07/19 07:40:17;;;;;;;6.03;4.88;;;29.40;82.50;;;;;;5062634;28;20270;-94
2022/07/19 07:42:44;;;;;;;5.45;4.55;;;30.10;76.60;;;;;;5063461;28;20216;-94
2022/07/19 07:45:11;;;;;;;5.28;4.78;;;30.70;76.60;;;;;;5077004;28;20230;-94
2022/07/19 07:47:38;;;;;;;6.68;4.60;;;31.20;75.30;;;;;;5059792;28;20214;-95
2022/07/19 07:50:06;;;;;;;5.25;4.50;;;31.70;73.90;;;;;;5059057;28;20223;-94
2022/07/19 07:52:32;;;;;;;5.35;4.20;;;32.30;70.30;;;;;;5059407;28;20251;-94
2022/07/19 07:55:01;;;;;;;6.60;4.45;;;32.70;69.70;;;;;;5053346;28;20326;-94
2022/07/19 07:57:29;;;;;;;6.47;4.68;;;33.10;67.20;;;;;;5056965;28;20250;-94
2022/07/19 07:59:56;;;;;;;5.32;4.35;;;33.50;60.30;;;;;;5058698;28;20280;-94
2022/07/19 08:02:22;;;;;;;4.75;4.25;;;33.70;60.30;;;;;;5058133;28;20222;-94
2022/07/19 08:04:49;;;;;;;10.07;4.85;;;33.90;59.10;;;;;;5058982;28;20250;-94
2022/07/19 08:07:16;;;;;;;6.93;4.80;;;34.00;56.40;;;;;;5069409;28;20239;-94
2022/07/19 08:09:43;;;;;;;4.88;3.90;;;34.10;55.00;;;;;;5060241;28;20659;-95
2022/07/19 08:12:10;;;;;;;4.22;3.80;;;34.10;55.20;;;;;;5051410;28;20260;-93
2022/07/19 08:14:38;;;;;;;5.35;4.60;;;34.10;53.80;;;;;;5079142;28;20875;-94
2022/07/19 08:17:05;;;;;;;5.72;4.43;;;34.10;53.60;;;;;;5059139;28;20239;-94
2022/07/19 08:19:31;;;;;;;6.88;4.30;;;34.20;53.10;;;;;;5075651;28;20235;-94
2022/07/19 08:21:58;;;;;;;4.90;4.40;;;34.30;52.80;;;;;;5065785;28;20301;-94
2022/07/19 08:24:25;;;;;;;5.70;4.10;;;34.30;51.40;;;;;;5052998;28;20290;-94
2022/07/19 08:26:52;;;;;;;4.80;4.30;;;34.30;51.50;;;;;;5074933;28;20306;-93
2022/07/19 08:29:18;;;;;;;5.85;4.60;;;34.30;52.10;;;;;;5073906;28;20219;-94
2022/07/19 08:31:46;;;;;;;5.28;4.70;;;34.40;52.10;;;;;;5063664;28;20215;-94
2022/07/19 08:34:13;;;;;;;5.45;4.15;;;34.60;52.00;;;;;;5067577;28;20227;-94
2022/07/19 08:36:40;;;;;;;6.55;4.28;;;34.90;52.60;;;;;;5063926;28;20305;-94
2022/07/19 08:39:07;;;;;;;7.82;4.35;;;35.20;51.80;;;;;;5074754;28;20219;-94
2022/07/19 08:41:35;;;;;;;5.28;4.70;;;35.60;51.90;;;;;;5058294;28;20231;-94
2022/07/19 08:44:03;;;;;;;6.75;4.30;;;36.00;49.70;;;;;;5060552;28;20236;-94
2022/07/19 08:46:30;;;;;;;5.07;4.30;;;36.30;50.40;;;;;;5059053;28;20323;-94
2022/07/19 08:48:58;;;;;;;5.47;4.20;;;36.50;49.20;;;;;;5077558;28;20251;-94
2022/07/19 08:51:26;;;;;;;6.00;4.30;;;36.70;48.30;;;;;;5055236;28;20357;-95
2022/07/19 08:53:53;;;;;;;6.43;4.43;;;36.80;48.90;;;;;;5075290;28;20658;-94
2022/07/19 08:59:19;;;;;;;6.18;5.18;;;36.90;47.20;;;;;;5035525;28;20230;-94
2022/07/19 09:01:46;;;;;;;5.13;4.63;;;36.80;47.40;;;;;;5020408;28;20936;-93
2022/07/19 09:04:16;;;;;;;5.05;4.53;;;36.70;47.70;;;;;;5033899;28;20314;-94
2022/07/19 09:06:45;;;;;;;6.63;4.45;;;36.80;47.40;;;;;;5084341;28;20250;-94
2022/07/19 09:09:15;;;;;;;5.25;4.50;;;37.00;47.60;;;;;;5058663;28;20669;-94
2022/07/19 09:11:49;;;;;;;4.65;4.25;;;37.20;47.30;;;;;;5059914;28;20223;-95
2022/07/19 09:14:17;;;;;;;6.35;4.30;;;37.40;45.60;;;;;;5060616;28;20290;-94
2022/07/19 09:16:51;;;;;;;5.57;3.97;;;37.50;45.90;;;;;;5059826;28;20230;-95
2022/07/19 09:19:21;;;;;;;5.65;4.30;;;37.60;44.10;;;;;;5063208;28;20251;-94
2022/07/19 09:21:53;;;;;;;5.45;4.20;;;37.60;45.20;;;;;;5072605;28;20254;-94
2022/07/19 09:24:20;;;;;;;5.55;4.20;;;37.70;44.90;;;;;;5071586;28;20211;-94
2022/07/19 09:26:56;;;;;;;4.90;4.40;;;37.70;45.00;;;;;;5076881;28;20776;-93
2022/07/19 09:29:23;;;;;;;5.18;4.03;;;37.70;44.50;;;;;;5061049;28;20219;-94
2022/07/19 09:32:05;;;;;;;5.10;4.35;;;37.80;44.20;;;;;;5058200;28;20225;-95
2022/07/19 09:34:35;;;;;;;4.88;4.38;;;37.80;41.60;;;;;;5072608;28;20220;-94
2022/07/19 09:37:16;;;;;;;5.45;3.83;;;37.80;42.70;;;;;;5060778;28;20234;-95
2022/07/19 09:39:48;;;;;;;4.45;4.00;;;37.80;41.80;;;;;;5058395;28;20231;-94
2022/07/19 09:42:16;;;;;;;5.32;4.15;;;37.90;41.20;;;;;;5061356;28;20243;-94
2022/07/19 09:44:44;;;;;;;5.18;3.92;;;37.80;40.90;;;;;;5064124;28;20219;-94
2022/07/19 09:47:11;;;;;;;5.22;3.70;;;37.80;40.70;;;;;;5061741;28;20225;-93
2022/07/19 09:49:39;;;;;;;5.20;3.60;;;37.80;41.40;;;;;;5059056;28;20310;-94
2022/07/19 09:52:06;;;;;;;5.10;3.78;;;37.80;40.80;;;;;;5060608;28;20283;-94
2022/07/19 09:54:33;;;;;;;5.15;4.15;;;37.80;40.50;;;;;;5058738;28;20234;-95
2022/07/19 09:57:00;;;;;;;5.15;3.55;;;37.90;40.50;;;;;;5058680;28;20228;-94
2022/07/19 09:59:28;;;;;;;5.15;3.53;;;37.90;39.60;;;;;;5058204;28;20330;-94
2022/07/19 10:01:57;;;;;;;4.43;3.92;;;37.80;39.50;;;;;;5060688;28;20322;-94
2022/07/19 10:04:27;;;;;;;5.55;3.60;;;37.70;40.10;;;;;;5056641;28;20255;-94
2022/07/19 10:06:56;;;;;;;4.55;3.15;;;37.80;40.80;;;;;;5069440;28;20224;-94
2022/07/19 10:09:24;;;;;;;3.90;3.50;;;37.80;39.70;;;;;;5061163;28;20286;-94
2022/07/19 10:11:53;;;;;;;4.68;3.30;;;37.80;39.20;;;;;;5055219;28;20262;-94
2022/07/19 10:14:20;;;;;;;3.75;3.45;;;37.90;39.80;;;;;;5058594;28;20231;-94
2022/07/19 10:16:57;;;;;;;6.47;3.08;;;38.00;39.70;;;;;;5059856;28;20291;-93
2022/07/19 10:19:35;;;;;;;4.85;3.08;;;38.20;37.80;;;;;;5062319;28;20321;-95
2022/07/19 10:22:04;;;;;;;4.40;2.92;;;38.30;37.00;;;;;;5075576;28;20223;-95
2022/07/19 10:24:49;;;;;;;5.55;3.40;;;38.30;37.50;;;;;;5061934;28;20287;-94
2022/07/19 10:27:18;;;;;;;3.50;3.20;;;38.30;38.00;;;;;;5072677;28;20223;-94
2022/07/19 10:29:45;;;;;;;3.17;2.75;;;38.40;38.00;;;;;;5062786;28;20306;-95
2022/07/19 10:32:13;;;;;;;3.55;3.22;;;38.40;37.10;;;;;;5063477;28;20325;-95
2022/07/19 10:34:45;;;;;;;6.10;2.80;;;38.60;37.30;;;;;;5067559;28;20212;-96
2022/07/19 10:37:14;;;;;;;5.72;2.90;;;38.70;37.10;;;;;;5069657;28;20227;-94
2022/07/19 10:39:41;;;;;;;3.70;3.05;;;38.90;36.90;;;;;;5065524;28;20297;-95
2022/07/19 10:42:18;;;;;;;3.60;3.30;;;39.10;36.00;;;;;;5058513;28;20223;-94
2022/07/19 10:45:11;;;;;;;4.40;3.33;;;39.30;36.90;;;;;;5080289;28;20842;-94
2022/07/19 10:47:59;;;;;;;3.47;2.95;;;39.40;37.10;;;;;;5065261;28;20317;-94
2022/07/19 10:50:49;;;;;;;3.05;2.75;;;39.60;36.20;;;;;;5081303;28;20361;-93
2022/07/19 10:53:57;;;;;;;2.72;2.40;;;39.80;36.10;;;;;;5076064;28;20224;-94
2022/07/19 10:56:29;;;;;;;3.00;2.70;;;40.00;35.60;;;;;;5061763;28;20234;-95
2022/07/19 10:58:59;;;;;;;2.92;2.72;;;40.10;34.90;;;;;;5062301;28;20223;-94
2022/07/19 11:01:32;;;;;;;4.05;2.83;;;40.20;34.20;;;;;;5067105;28;20211;-94
2022/07/19 11:04:37;;;;;;;3.05;2.75;;;40.20;34.40;;;;;;5063200;28;20327;-94
2022/07/19 11:07:15;;;;;;;3.90;2.92;;;40.30;34.80;;;;;;5042688;28;20243;-94
2022/07/19 11:09:44;;;;;;;3.35;3.05;;;40.40;34.70;;;;;;5074650;28;20254;-94
2022/07/19 11:12:37;;;;;;;3.30;2.80;;;40.60;34.50;;;;;;5085094;28;20219;-94
2022/07/19 11:15:07;;;;;;;3.08;2.80;;;40.60;34.60;;;;;;5046336;28;20219;-94
2022/07/19 11:17:34;;;;;;;3.50;2.72;;;40.70;34.30;;;;;;5064746;28;20223;-96
2022/07/19 11:20:08;;;;;;;4.40;2.88;;;40.80;33.90;;;;;;5066776;28;20234;-94
2022/07/19 11:22:36;;;;;;;4.25;3.13;;;40.90;33.10;;;;;;5079306;28;20280;-94
2022/07/19 11:25:04;;;;;;;2.95;2.55;;;40.80;32.70;;;;;;5084733;28;20223;-94
2022/07/19 11:27:32;;;;;;;3.92;3.17;;;40.80;32.60;;;;;;5066757;28;20227;-94
2022/07/19 11:30:06;;;;;;;3.65;3.00;;;40.70;32.60;;;;;;5067042;28;20219;-94
2022/07/19 11:32:33;;;;;;;3.58;3.28;;;40.70;32.40;;;;;;5064568;28;20268;-94
2022/07/19 11:35:01;;;;;;;3.72;2.63;;;40.80;32.60;;;;;;5054890;28;20239;-95
2022/07/19 11:37:30;;;;;;;3.83;2.60;;;40.80;31.90;;;;;;5065744;28;20295;-94
2022/07/19 11:39:58;;;;;;;5.53;2.30;;;40.80;32.30;;;;;;5063444;28;20230;-95
2022/07/19 11:42:29;;;;;;;3.33;2.30;;;40.80;32.00;;;;;;5065844;28;20279;-94
2022/07/19 11:44:56;;;;;;;2.83;2.55;;;40.90;31.80;;;;;;5065160;28;20287;-95
2022/07/19 11:47:24;;;;;;;3.10;2.40;;;41.10;31.90;;;;;;5084502;28;20250;-95
2022/07/19 11:49:51;;;;;;;3.15;2.30;;;41.20;31.70;;;;;;5065376;28;20235;-94
2022/07/19 11:52:18;;;;;;;2.20;1.95;;;41.20;31.20;;;;;;5062469;28;20246;-94
2022/07/19 11:54:59;;;;;;;2.63;1.83;;;41.20;31.10;;;;;;5083404;28;20255;-94
2022/07/19 11:57:26;;;;;;;3.28;2.42;;;41.10;30.00;;;;;;5062886;28;20224;-94
2022/07/19 11:59:53;;;;;;;2.83;2.20;;;41.10;30.40;;;;;;5066957;28;20247;-94
2022/07/19 12:02:19;;;;;;;2.85;2.30;;;41.10;30.70;;;;;;5067434;28;20285;-95
2022/07/19 12:04:48;;;;;;;1.88;1.73;;;41.10;30.00;;;;;;5083170;28;20239;-95
2022/07/19 12:07:18;;;;;;;2.92;1.63;;;41.10;29.40;;;;;;5064132;28;20212;-93
2022/07/19 12:09:45;;;;;;;1.88;1.70;;;41.10;29.50;;;;;;5081226;28;20231;-95
2022/07/19 12:12:16;;;;;;;2.63;2.20;;;41.10;29.80;;;;;;5066518;28;20247;-95
2022/07/19 12:14:44;;;;;;;1.88;1.77;;;41.10;29.30;;;;;;5083383;28;20234;-94
2022/07/19 12:17:13;;;;;;;2.95;1.98;;;41.20;29.40;;;;;;5060238;28;20254;-94
2022/07/19 12:19:42;;;;;;;2.35;2.15;;;41.30;29.30;;;;;;5054415;28;20563;-94
2022/07/19 12:22:29;;;;;;;1.95;1.77;;;41.40;29.50;;;;;;5063492;28;20503;-94
2022/07/19 12:24:56;;;;;;;2.13;1.90;;;41.50;29.20;;;;;;5064785;28;20257;-94
2022/07/19 12:27:27;;;;;;;2.05;1.85;;;41.50;29.50;;;;;;5065442;28;20272;-95
2022/07/19 12:29:55;;;;;;;2.65;2.20;;;41.60;29.00;;;;;;5066542;28;20215;-93
2022/07/19 12:32:29;;;;;;;3.10;2.10;;;41.60;29.10;;;;;;5080538;28;20223;-94
2022/07/19 12:34:58;;;;;;;3.28;2.10;;;41.60;29.50;;;;;;5077211;28;20923;-95
2022/07/19 12:37:27;;;;;;;2.20;2.00;;;41.50;29.00;;;;;;5077482;28;20219;-94
2022/07/19 12:40:01;;;;;;;2.30;2.10;;;41.50;28.60;;;;;;5081268;28;20641;-94
2022/07/19 12:42:37;;;;;;;2.90;2.30;;;41.50;28.60;;;;;;5068996;28;20280;-95
2022/07/19 12:45:05;;;;;;;2.25;2.05;;;41.50;28.90;;;;;;5081396;28;20358;-95
2022/07/19 12:47:32;;;;;;;2.03;1.83;;;41.50;28.90;;;;;;5058623;28;20270;-94
2022/07/19 12:49:59;;;;;;;2.70;2.22;;;41.50;28.60;;;;;;5057626;28;20255;-94
2022/07/19 12:52:26;;;;;;;4.18;2.33;;;41.50;29.20;;;;;;5065308;28;20223;-94
2022/07/19 12:54:52;;;;;;;2.78;2.20;;;41.50;29.10;;;;;;5057770;28;20268;-95
2022/07/19 12:57:21;;;;;;;3.95;2.20;;;41.40;28.20;;;;;;5066906;28;20243;-95
2022/07/19 12:59:47;;;;;;;2.40;2.20;;;41.40;28.00;;;;;;5066022;28;20227;-94